Columbus/Bolton Field, Ohio
Current Conditions -  °F | °C
As of 4:47 PM on Thursday 27 Nov 2014 (Local Time) from KTZR Reporting Station
Overcast Overcast  
Wind Chill: 24°   Ceiling: 2500
Heat Index: 32°   Visibility: 10mi
Dew Point: 25°   Wind: 9mph
Humidity: 75%   Direction: 200°SSW
Pressure: 30.25"   Gusts: NA
Location:  39.9°N, 83.13°W
Report Text: KTZR 272147Z 20008KT 10SM BKN025 OVC033 00/M04 A3025
Loading
Personal Weather Stations






























Interactive Weather Map New forecast layout! Learn more

10-Day Weather Forecast

Advertisements
Track Severe Weather on mobile